Hovedside
METAR-TAF:

METAR-TAF

Lufthavner :

Joensuu lufthavn

Joensuu, Finland

breddegrad: 62-40N, lengdegrad: 029-38E, høyde over havet: 119 m

Gjeldene værobservasjon

Denne rapporten ble laget for 16 minutter siden, klokken 01:20 UTC
Vind 2 kt fra Nordøst
Temperatur -3°C
Luftfuktighet 93%
Trykk 1010 hPa
Sikt: 9000 m
Overskyet i en høyde av 5300 ft
lette snøbyger, underkjølt tåke

METAR: EFJO 110120Z AUTO 04002KT 9000 -SHSN FZFG OVC053 M03/M04 Q1010

Tid: 03:36 (01:36 UTC)

Varsel

Denne rapporten ble laget for 5 timer og 0 minutter siden, klokken 20:36 UTC
Varsel gyldig fra 10. klokken 21 UTC til 10. klokken 24 UTC
Vind 3 kt fra Nordøst
Sikt: 8000 m
Brutte skyer i en høyde av 900 ft
lett snø
Midlertidig
fra 10. klokken 21 UTC til 10. klokken 24 UTC
Sikt: 4000 m
Spredte skyer i en høyde av 800 ft
Brutte skyer i en høyde av 1500 ft
lett snø

TAF: EFJO 102036Z 1021/1024 05003KT 8000 -SN BKN009 TEMPO 1021/1024 4000 -SN SCT008 BKN015

Værobservasjoner og værvarsel for over 4000 flyplasser (METAR- og TAF-rapporter).

Tilgjengelige stasjoner er representert av de røde og gule prikkene på kartet.

Hold musepekeren over prikken for å se navnet på stasjonen.

Klikk så for å se værobservasjoner og -varsler.

For å forandre kartet kan du klikke på den grønne knappen med svart kryss for å zoome inn, på den grønne knappen med strek for å zoome ut, eller på de grønne pilene for å se tilstøtende kart.


METAR-TAF: